Novomar — 5BCT2 — position and weather

sailwx.info

Track history (hours):
 
Tides and Currents Weather Stations Pressure Air Temp Water Temp Dewpoint Dewpoint Depression Visibility Wind Speed Wind Dir Waves Ship Positions

Novomar

Last reported at 2017-Mar-28 05:13 UTC. Time now 2017-Mar-30 16:30 UTC.
Position N 43°42' W 005°46'.

Length 89 m; draft 3.6 m.

Type: Ship. MMSI: 210974000.

Date/timePositionNaut miles runAvg speedWind from/ knotsBaromVisibWave heightAir tempDewpointWater temp
2017-Mar-28 05:13N 43°42' W 005°46'24 9.1
2017-Mar-28 02:33N 43°40' W 005°13'142 9.5
2017-Mar-27 11:33N 43°22' W 001°59'  
2017-Mar-22 10:32N 49°47' W 003°12'9 8.8
2017-Mar-22 09:28N 49°54' W 003°01'108 7.7
2017-Mar-21 19:28N 50°28' W 000°22'9 9.6
2017-Mar-21 18:33N 50°30' W 000°09'9 9.1
2017-Mar-21 17:33N 50°33' E 000°05'9 8.7
2017-Mar-21 16:33N 50°35' E 000°18'8 8.4
2017-Mar-21 15:33N 50°38' E 000°31'8 8.2
2017-Mar-21 14:33N 50°42' E 000°42'9 8.5
2017-Mar-21 13:32N 50°47' E 000°54'14 9.7
2017-Mar-21 12:04N 50°56' E 001°11'510.7
2017-Mar-21 11:33N 50°59' E 001°18'1110.9
2017-Mar-21 10:34N 51°06' E 001°31'1010.0
2017-Mar-21 09:33N 51°13' E 001°43'9 9.3
2017-Mar-21 08:33N 51°21' E 001°52'8 8.2
2017-Mar-21 07:33N 51°28' E 001°58'8 7.6
2017-Mar-21 06:30N 51°34' E 002°06'95 8.4
2017-Mar-20 19:11N 52°48' E 003°44'3 5.1
2017-Mar-20 18:32N 52°51' E 003°48'5 5.3
2017-Mar-20 17:32N 52°55' E 003°54'170 7.4
2017-Mar-19 18:33N 54°00' E 008°17'9 8.9
2017-Mar-19 17:31N 53°58' E 008°33'8 8.5
2017-Mar-19 16:33N 53°53' E 008°43'7 6.8
2017-Mar-19 15:33N 53°51' E 008°54'6 6.5
2017-Mar-19 14:33N 53°53' E 009°04'3 3.1
2017-Mar-19 13:33N 53°54' E 009°09'0 0.1
2017-Mar-19 12:33N 53°54' E 009°09'2 1.5
2017-Mar-19 11:33N 53°55' E 009°11'8 7.9
2017-Mar-19 10:33N 54°02' E 009°18'56 5.4
2017-Mar-19 00:08N 54°34' E 010°36'5 9.2
2017-Mar-18 23:33N 54°35' E 010°45'8 8.5
2017-Mar-18 22:33N 54°36' E 010°59'8 7.9
2017-Mar-18 21:33N 54°35' E 011°13'8 7.6
2017-Mar-18 20:33N 54°32' E 011°25'8 7.9
2017-Mar-18 19:33N 54°29' E 011°37'8 8.2
2017-Mar-18 18:33N 54°26' E 011°51'8 8.1
2017-Mar-18 17:33N 54°26' E 012°05'8 7.9
2017-Mar-18 16:33N 54°33' E 012°13'9 8.6
2017-Mar-18 15:33N 54°39' E 012°22'61 8.7
2017-Mar-18 08:33N 55°04' E 013°59'8 8.3
2017-Mar-18 07:33N 55°09' E 014°10'8 8.1
2017-Mar-18 06:33N 55°15' E 014°21'8 8.5
2017-Mar-18 05:33N 55°21' E 014°30'  
Track history (hours):
 
Tides and Currents Weather Stations Pressure Air Temp Water Temp Dewpoint Dewpoint Depression Visibility Wind Speed Wind Dir Waves Ship Positions

Novomar

Last reported at 2017-Mar-28 05:13 UTC. Time now 2017-Mar-30 16:30 UTC.
Position N 43°42' W 005°46'.

Length 89 m; draft 3.6 m.

Type: Ship. MMSI: 210974000.

Date/timePositionNaut miles runAvg speedWind from/ knotsBaromVisibWave heightAir tempDewpointWater temp
2017-Mar-28 05:13N 43°42' W 005°46'24 9.1
2017-Mar-28 02:33N 43°40' W 005°13'142 9.5
2017-Mar-27 11:33N 43°22' W 001°59'  
2017-Mar-22 10:32N 49°47' W 003°12'9 8.8
2017-Mar-22 09:28N 49°54' W 003°01'108 7.7
2017-Mar-21 19:28N 50°28' W 000°22'9 9.6
2017-Mar-21 18:33N 50°30' W 000°09'9 9.1
2017-Mar-21 17:33N 50°33' E 000°05'9 8.7
2017-Mar-21 16:33N 50°35' E 000°18'8 8.4
2017-Mar-21 15:33N 50°38' E 000°31'8 8.2
2017-Mar-21 14:33N 50°42' E 000°42'9 8.5
2017-Mar-21 13:32N 50°47' E 000°54'14 9.7
2017-Mar-21 12:04N 50°56' E 001°11'510.7
2017-Mar-21 11:33N 50°59' E 001°18'1110.9
2017-Mar-21 10:34N 51°06' E 001°31'1010.0
2017-Mar-21 09:33N 51°13' E 001°43'9 9.3
2017-Mar-21 08:33N 51°21' E 001°52'8 8.2
2017-Mar-21 07:33N 51°28' E 001°58'8 7.6
2017-Mar-21 06:30N 51°34' E 002°06'95 8.4
2017-Mar-20 19:11N 52°48' E 003°44'3 5.1
2017-Mar-20 18:32N 52°51' E 003°48'5 5.3
2017-Mar-20 17:32N 52°55' E 003°54'170 7.4
2017-Mar-19 18:33N 54°00' E 008°17'9 8.9
2017-Mar-19 17:31N 53°58' E 008°33'8 8.5
2017-Mar-19 16:33N 53°53' E 008°43'7 6.8
2017-Mar-19 15:33N 53°51' E 008°54'6 6.5
2017-Mar-19 14:33N 53°53' E 009°04'3 3.1
2017-Mar-19 13:33N 53°54' E 009°09'0 0.1
2017-Mar-19 12:33N 53°54' E 009°09'2 1.5
2017-Mar-19 11:33N 53°55' E 009°11'8 7.9
2017-Mar-19 10:33N 54°02' E 009°18'56 5.4
2017-Mar-19 00:08N 54°34' E 010°36'5 9.2
2017-Mar-18 23:33N 54°35' E 010°45'8 8.5
2017-Mar-18 22:33N 54°36' E 010°59'8 7.9
2017-Mar-18 21:33N 54°35' E 011°13'8 7.6
2017-Mar-18 20:33N 54°32' E 011°25'8 7.9
2017-Mar-18 19:33N 54°29' E 011°37'8 8.2
2017-Mar-18 18:33N 54°26' E 011°51'8 8.1
2017-Mar-18 17:33N 54°26' E 012°05'8 7.9
2017-Mar-18 16:33N 54°33' E 012°13'9 8.6
2017-Mar-18 15:33N 54°39' E 012°22'61 8.7
2017-Mar-18 08:33N 55°04' E 013°59'8 8.3
2017-Mar-18 07:33N 55°09' E 014°10'8 8.1
2017-Mar-18 06:33N 55°15' E 014°21'8 8.5
2017-Mar-18 05:33N 55°21' E 014°30'  

Dump ship's entire track history